Time;durP1;ratioP1;P1;durP2;ratioP2;P2;SDS_P1;SDS_P2;PMS_P1;PMS_P2;Temp;Humidity;BMP_temperature;BMP_pressure;BME280_temperature;BME280_humidity;BME280_pressure;Samples;Min_cycle;Max_cycle;Signal;HPM_P1;HPM_P2
2021/08/21 00:01:10;;;;;;;0.80;0.55;;;19.50;71.00;;;;;;5073644;28;20028;-76
2021/08/21 00:03:37;;;;;;;0.80;0.50;;;19.60;71.00;;;;;;5077656;28;20020;-76
2021/08/21 00:06:03;;;;;;;0.77;0.40;;;19.60;71.00;;;;;;5070074;28;20048;-76
2021/08/21 00:08:28;;;;;;;0.88;0.50;;;19.60;71.00;;;;;;5072896;28;20029;-76
2021/08/21 00:10:54;;;;;;;0.75;0.45;;;19.50;71.10;;;;;;5057584;28;20078;-76
2021/08/21 00:13:20;;;;;;;1.02;0.52;;;19.50;70.90;;;;;;5057553;28;20099;-76
2021/08/21 00:15:46;;;;;;;0.80;0.50;;;19.50;71.10;;;;;;5057387;28;20135;-76
2021/08/21 00:18:14;;;;;;;1.02;0.52;;;19.50;71.00;;;;;;5057302;28;20170;-76
2021/08/21 00:20:39;;;;;;;0.88;0.55;;;19.50;70.70;;;;;;5057168;28;20095;-75
2021/08/21 00:23:05;;;;;;;0.70;0.50;;;19.50;71.00;;;;;;5057301;28;20029;-75
2021/08/21 00:25:31;;;;;;;0.82;0.40;;;19.50;71.20;;;;;;5057290;28;20022;-76
2021/08/21 00:27:57;;;;;;;0.90;0.60;;;19.40;71.10;;;;;;5057257;28;20025;-75
2021/08/21 00:30:22;;;;;;;0.88;0.50;;;19.40;71.00;;;;;;5075044;28;20024;-76
2021/08/21 00:32:49;;;;;;;1.00;0.65;;;19.40;71.00;;;;;;5076796;28;20124;-76
2021/08/21 00:35:14;;;;;;;0.98;0.55;;;19.30;71.20;;;;;;5077151;28;20044;-76
2021/08/21 00:37:40;;;;;;;1.15;0.60;;;19.30;71.60;;;;;;5069556;28;20475;-76
2021/08/21 00:40:07;;;;;;;0.80;0.50;;;19.30;72.10;;;;;;5058629;28;20025;-76
2021/08/21 00:42:34;;;;;;;0.85;0.50;;;19.20;71.60;;;;;;5076955;28;20032;-76
2021/08/21 00:45:00;;;;;;;0.70;0.43;;;19.30;71.60;;;;;;5075393;28;20526;-76
2021/08/21 00:47:26;;;;;;;1.10;0.52;;;19.20;71.60;;;;;;5076751;28;20029;-76
2021/08/21 00:49:54;;;;;;;0.80;0.52;;;19.20;71.70;;;;;;5065631;28;20909;-76
2021/08/21 00:52:31;;;;;;;1.52;0.50;;;19.20;71.70;;;;;;5056771;28;20021;-76
2021/08/21 00:54:58;;;;;;;0.75;0.50;;;19.20;71.80;;;;;;5074232;28;20032;-76
2021/08/21 00:57:27;;;;;;;1.48;0.70;;;19.20;71.90;;;;;;5076546;28;20025;-76
2021/08/21 00:59:53;;;;;;;0.85;0.60;;;19.20;71.80;;;;;;5066108;28;20036;-76
2021/08/21 01:02:20;;;;;;;0.93;0.60;;;19.10;71.90;;;;;;5074516;28;20025;-76
2021/08/21 01:04:49;;;;;;;0.70;0.50;;;19.10;72.00;;;;;;5076510;28;20051;-76
2021/08/21 01:07:17;;;;;;;0.95;0.50;;;19.10;71.80;;;;;;5075008;28;20108;-76
2021/08/21 01:09:43;;;;;;;1.13;0.55;;;19.00;72.10;;;;;;5070935;28;20056;-76
2021/08/21 01:12:11;;;;;;;1.10;0.60;;;19.00;72.20;;;;;;5056504;28;20021;-76
2021/08/21 01:14:37;;;;;;;1.83;0.70;;;19.00;72.20;;;;;;5056185;28;20032;-76
2021/08/21 01:17:04;;;;;;;0.47;0.30;;;19.00;72.20;;;;;;5054868;28;20021;-76
2021/08/21 01:19:32;;;;;;;0.80;0.60;;;19.00;72.20;;;;;;5066130;28;20036;-76
2021/08/21 01:21:58;;;;;;;1.63;0.68;;;19.00;72.50;;;;;;5076101;28;20025;-76
2021/08/21 01:24:24;;;;;;;1.25;0.60;;;18.90;72.60;;;;;;5072349;28;20029;-76
2021/08/21 01:26:52;;;;;;;1.00;0.70;;;18.90;72.60;;;;;;5062486;28;20078;-76
2021/08/21 01:29:18;;;;;;;1.00;0.60;;;18.80;72.50;;;;;;5076185;28;20029;-76
2021/08/21 01:31:45;;;;;;;1.10;0.65;;;18.80;72.70;;;;;;5069218;28;20032;-75
2021/08/21 01:34:11;;;;;;;1.02;0.70;;;18.80;73.00;;;;;;5055928;28;20533;-76
2021/08/21 01:36:44;;;;;;;0.93;0.57;;;18.80;72.80;;;;;;5056016;28;20103;-76
2021/08/21 01:39:10;;;;;;;0.90;0.63;;;18.80;73.00;;;;;;5055621;28;20033;-76
2021/08/21 01:41:37;;;;;;;0.85;0.50;;;18.80;72.90;;;;;;5070036;28;20063;-76
2021/08/21 01:44:08;;;;;;;0.73;0.50;;;18.80;72.90;;;;;;5075849;28;20601;-76
2021/08/21 01:46:34;;;;;;;0.77;0.60;;;18.70;73.30;;;;;;5075193;28;20055;-76
2021/08/21 01:49:07;;;;;;;0.90;0.68;;;18.70;73.30;;;;;;5055890;28;20484;-76
2021/08/21 01:51:33;;;;;;;1.00;0.60;;;18.70;73.30;;;;;;5055732;28;20052;-76
2021/08/21 01:53:59;;;;;;;1.00;0.60;;;18.60;73.60;;;;;;5055701;28;20048;-76
2021/08/21 01:56:28;;;;;;;1.83;0.70;;;18.60;73.50;;;;;;5055482;28;20033;-75
2021/08/21 01:58:54;;;;;;;0.82;0.63;;;18.60;73.90;;;;;;5075358;28;20051;-76
2021/08/21 02:01:20;;;;;;;0.93;0.50;;;18.60;73.70;;;;;;5075352;28;20028;-76
2021/08/21 02:03:46;;;;;;;1.08;0.70;;;18.50;74.00;;;;;;5072584;28;20074;-76
2021/08/21 02:06:14;;;;;;;1.05;0.52;;;18.50;73.90;;;;;;5055430;28;20114;-76
2021/08/21 02:08:40;;;;;;;0.93;0.60;;;18.50;73.90;;;;;;5055425;28;20021;-76
2021/08/21 02:11:07;;;;;;;0.98;0.52;;;18.50;73.70;;;;;;5054909;28;20067;-75
2021/08/21 02:13:33;;;;;;;1.00;0.60;;;18.50;73.80;;;;;;5055401;28;20079;-75
2021/08/21 02:15:59;;;;;;;0.90;0.70;;;18.50;73.60;;;;;;5055626;28;20554;-76
2021/08/21 02:18:25;;;;;;;0.90;0.50;;;18.50;73.70;;;;;;5055998;28;20029;-76
2021/08/21 02:20:51;;;;;;;0.90;0.60;;;18.50;74.10;;;;;;5075372;28;20029;-76
2021/08/21 02:23:19;;;;;;;1.17;0.60;;;18.40;74.20;;;;;;5075535;28;20013;-76
2021/08/21 02:25:45;;;;;;;0.88;0.57;;;18.40;74.10;;;;;;5075551;28;20055;-75
2021/08/21 02:28:17;;;;;;;1.10;0.65;;;18.40;74.20;;;;;;5070685;28;20029;-75
2021/08/21 02:30:44;;;;;;;0.80;0.52;;;18.40;73.70;;;;;;5053777;28;20130;-75
2021/08/21 02:33:09;;;;;;;0.80;0.60;;;18.40;73.90;;;;;;5055106;28;20215;-76
2021/08/21 02:35:35;;;;;;;0.93;0.60;;;18.40;74.00;;;;;;5055070;28;20049;-75
2021/08/21 02:38:03;;;;;;;1.17;0.68;;;18.30;74.30;;;;;;5055345;28;20067;-76
2021/08/21 02:40:31;;;;;;;1.13;0.60;;;18.40;74.20;;;;;;5059933;28;20032;-76
2021/08/21 02:42:57;;;;;;;1.38;0.60;;;18.40;74.20;;;;;;5073373;28;20031;-76
2021/08/21 02:45:23;;;;;;;1.75;0.60;;;18.30;74.30;;;;;;5054944;28;20056;-76
2021/08/21 02:47:48;;;;;;;1.15;0.80;;;18.30;74.40;;;;;;5055164;28;20052;-76
2021/08/21 02:50:14;;;;;;;0.88;0.52;;;18.30;74.50;;;;;;5055161;28;20102;-76
2021/08/21 02:52:40;;;;;;;1.15;0.50;;;18.30;74.50;;;;;;5074911;28;20028;-76
2021/08/21 02:55:06;;;;;;;0.77;0.55;;;18.30;74.40;;;;;;5074964;28;20036;-75
2021/08/21 02:57:31;;;;;;;0.80;0.57;;;18.30;74.80;;;;;;5071381;28;20031;-76
2021/08/21 02:59:57;;;;;;;1.00;0.70;;;18.30;74.70;;;;;;5058819;28;20120;-76
2021/08/21 03:02:23;;;;;;;1.00;0.65;;;18.20;75.40;;;;;;5058736;28;20060;-75
2021/08/21 03:04:48;;;;;;;1.02;0.73;;;18.10;75.60;;;;;;5058829;28;20025;-76
2021/08/21 03:07:14;;;;;;;1.02;0.80;;;18.20;75.20;;;;;;5058545;28;20467;-75
2021/08/21 03:09:40;;;;;;;1.15;0.60;;;18.20;75.20;;;;;;5058701;28;20029;-75
2021/08/21 03:12:05;;;;;;;0.75;0.60;;;18.20;75.30;;;;;;5063303;28;20024;-76
2021/08/21 03:14:33;;;;;;;0.90;0.70;;;18.10;75.90;;;;;;5078702;28;20043;-76
2021/08/21 03:16:59;;;;;;;0.80;0.55;;;18.00;76.10;;;;;;5078428;28;20016;-76
2021/08/21 03:19:25;;;;;;;3.03;0.70;;;18.10;75.60;;;;;;5078452;28;20376;-76
2021/08/21 03:21:50;;;;;;;0.80;0.60;;;18.10;75.20;;;;;;5064992;28;20506;-76
2021/08/21 03:24:16;;;;;;;1.20;0.55;;;18.00;75.80;;;;;;5058521;28;20075;-76
2021/08/21 03:26:41;;;;;;;1.10;0.75;;;17.80;75.90;;;;;;5058530;28;20031;-76
2021/08/21 03:29:08;;;;;;;1.10;0.90;;;17.70;76.20;;;;;;5078269;28;20115;-76
2021/08/21 03:31:37;;;;;;;1.63;0.80;;;17.60;76.40;;;;;;5073721;28;20527;-76
2021/08/21 03:34:03;;;;;;;1.15;0.85;;;17.40;77.40;;;;;;5058250;28;20025;-76
2021/08/21 03:36:29;;;;;;;1.00;0.80;;;17.30;77.80;;;;;;5058231;28;20089;-76
2021/08/21 03:38:54;;;;;;;1.30;0.90;;;17.30;77.90;;;;;;5056717;28;20491;-76
2021/08/21 03:41:20;;;;;;;3.63;0.82;;;17.30;77.90;;;;;;5068901;28;20025;-76
2021/08/21 03:43:46;;;;;;;1.35;0.80;;;17.50;77.40;;;;;;5078156;28;20033;-76
2021/08/21 03:46:11;;;;;;;1.38;0.80;;;17.50;77.40;;;;;;5060939;28;20060;-76
2021/08/21 03:48:41;;;;;;;1.98;0.93;;;17.60;77.10;;;;;;5057948;28;20029;-76
2021/08/21 03:51:07;;;;;;;1.10;0.98;;;17.60;76.90;;;;;;5058237;28;20028;-75
2021/08/21 03:53:33;;;;;;;1.10;0.80;;;17.50;77.10;;;;;;5057685;28;20087;-76
2021/08/21 03:55:58;;;;;;;1.95;0.80;;;17.60;77.00;;;;;;5057776;28;20048;-76
2021/08/21 03:58:24;;;;;;;1.10;0.80;;;17.60;76.60;;;;;;5057874;28;20051;-75
2021/08/21 04:00:49;;;;;;;1.50;0.90;;;17.70;76.70;;;;;;5057671;28;20090;-76
2021/08/21 04:03:15;;;;;;;1.63;1.05;;;17.70;76.60;;;;;;5057608;28;20036;-76
2021/08/21 04:05:51;;;;;;;1.30;1.00;;;17.70;76.30;;;;;;5057799;28;20124;-76
2021/08/21 04:08:17;;;;;;;1.20;0.90;;;17.70;76.10;;;;;;5056943;28;20029;-76
2021/08/21 04:10:43;;;;;;;1.40;1.08;;;17.70;76.00;;;;;;5057656;28;20505;-76
2021/08/21 04:13:08;;;;;;;1.63;0.93;;;17.60;76.80;;;;;;5057611;28;20056;-76
2021/08/21 04:15:34;;;;;;;1.10;0.85;;;17.70;76.50;;;;;;5057531;28;20025;-75
2021/08/21 04:18:00;;;;;;;1.55;1.00;;;17.70;76.50;;;;;;5057234;28;20033;-76
2021/08/21 04:20:25;;;;;;;1.15;0.88;;;17.70;76.50;;;;;;5057291;28;20036;-76
2021/08/21 04:23:09;;;;;;;2.13;1.08;;;17.60;76.90;;;;;;5057404;28;20028;-76
2021/08/21 04:25:34;;;;;;;1.20;1.00;;;17.40;77.40;;;;;;5063152;28;20035;-76
2021/08/21 04:28:00;;;;;;;1.20;0.93;;;17.50;77.20;;;;;;5077323;28;20025;-76
2021/08/21 04:30:25;;;;;;;1.15;1.00;;;17.40;77.40;;;;;;5060265;28;20414;-76
2021/08/21 04:32:51;;;;;;;1.42;0.95;;;17.40;77.30;;;;;;5057145;28;20467;-75
2021/08/21 04:35:17;;;;;;;1.50;1.02;;;17.50;77.10;;;;;;5057174;28;20032;-75
2021/08/21 04:37:42;;;;;;;1.35;1.05;;;17.50;76.80;;;;;;5057015;28;20430;-75
2021/08/21 04:40:11;;;;;;;1.35;1.20;;;17.50;77.30;;;;;;5058987;28;20044;-76
2021/08/21 04:42:37;;;;;;;1.40;1.10;;;17.40;77.30;;;;;;5074396;28;20029;-75
2021/08/21 04:45:05;;;;;;;1.95;1.10;;;17.60;77.00;;;;;;5075476;28;20533;-76
2021/08/21 04:47:31;;;;;;;1.95;1.00;;;17.50;77.10;;;;;;5076741;28;20025;-75
2021/08/21 04:49:56;;;;;;;1.50;1.10;;;17.50;77.30;;;;;;5066944;28;20090;-76
2021/08/21 04:52:23;;;;;;;1.25;1.08;;;17.40;77.50;;;;;;5056882;28;20080;-76
2021/08/21 04:54:49;;;;;;;2.67;1.10;;;17.30;77.90;;;;;;5056849;28;20040;-76
2021/08/21 04:57:16;;;;;;;1.30;0.93;;;17.30;78.20;;;;;;5068027;28;20020;-76
2021/08/21 04:59:41;;;;;;;1.27;1.13;;;17.30;78.10;;;;;;5076617;28;20028;-75
2021/08/21 05:02:07;;;;;;;1.52;0.90;;;17.40;78.30;;;;;;5076653;28;20095;-76
2021/08/21 05:04:33;;;;;;;1.20;1.00;;;17.30;78.30;;;;;;5069936;28;20509;-75
2021/08/21 05:06:59;;;;;;;1.08;0.98;;;17.40;77.90;;;;;;5056479;28;20480;-76
2021/08/21 05:09:24;;;;;;;1.33;1.00;;;17.50;77.80;;;;;;5056259;28;20048;-76
2021/08/21 05:11:50;;;;;;;1.88;1.00;;;17.40;78.10;;;;;;5056457;28;20017;-76
2021/08/21 05:14:16;;;;;;;1.27;1.00;;;17.40;78.00;;;;;;5056493;28;20062;-76
2021/08/21 05:16:45;;;;;;;1.33;1.15;;;17.40;77.90;;;;;;5056412;28;20670;-75
2021/08/21 05:19:24;;;;;;;1.23;1.03;;;17.40;77.80;;;;;;5055719;28;20021;-76
2021/08/21 05:21:51;;;;;;;1.48;1.10;;;17.40;77.90;;;;;;5056088;28;20403;-76
2021/08/21 05:24:18;;;;;;;0.85;0.75;;;17.50;77.80;;;;;;5056213;28;20032;-76
2021/08/21 05:26:47;;;;;;;1.20;1.00;;;17.50;77.50;;;;;;5069957;28;20039;-76
2021/08/21 05:29:17;;;;;;;1.63;1.05;;;17.60;77.40;;;;;;5076150;28;20040;-76
2021/08/21 05:31:44;;;;;;;1.35;1.08;;;17.60;77.10;;;;;;5065868;28;20040;-76
2021/08/21 05:34:13;;;;;;;1.25;1.00;;;17.60;77.20;;;;;;5056054;28;20037;-75
2021/08/21 05:36:39;;;;;;;1.20;1.00;;;17.50;77.90;;;;;;5055774;28;20361;-76
2021/08/21 05:39:10;;;;;;;1.10;0.90;;;17.30;78.40;;;;;;5055965;28;20029;-79
2021/08/21 05:41:36;;;;;;;1.80;0.90;;;17.20;79.20;;;;;;5069979;28;20502;-78
2021/08/21 05:44:02;;;;;;;1.77;1.02;;;17.20;79.20;;;;;;5068242;28;20025;-80
2021/08/21 05:46:28;;;;;;;1.17;0.93;;;17.30;79.10;;;;;;5055835;28;20049;-78
2021/08/21 05:48:53;;;;;;;1.35;1.00;;;17.30;78.90;;;;;;5055910;28;20431;-79
2021/08/21 05:51:19;;;;;;;1.40;1.00;;;17.30;78.70;;;;;;5070000;28;20090;-78
2021/08/21 05:53:44;;;;;;;1.75;1.00;;;17.40;78.50;;;;;;5055588;28;20033;-78
2021/08/21 05:56:10;;;;;;;1.20;1.08;;;17.50;78.40;;;;;;5055811;28;20083;-77
2021/08/21 05:58:36;;;;;;;1.17;0.98;;;17.40;78.30;;;;;;5055731;28;20041;-82
2021/08/21 06:01:01;;;;;;;1.10;0.90;;;17.50;78.10;;;;;;5055460;28;20033;-80
2021/08/21 06:03:27;;;;;;;2.38;1.20;;;17.60;77.90;;;;;;5055915;28;20016;-80
2021/08/21 06:05:53;;;;;;;1.10;0.85;;;17.70;77.50;;;;;;5066014;28;20024;-84
2021/08/21 06:08:18;;;;;;;1.17;0.90;;;17.70;77.80;;;;;;5070255;28;20056;-86
2021/08/21 06:10:45;;;;;;;1.30;1.00;;;17.80;77.50;;;;;;5075354;28;20490;-78
2021/08/21 06:13:11;;;;;;;1.30;0.98;;;17.80;77.30;;;;;;5075759;28;20021;-80
2021/08/21 06:15:36;;;;;;;1.30;0.90;;;17.90;77.10;;;;;;5074308;28;20035;-83
2021/08/21 06:18:03;;;;;;;1.45;0.90;;;17.90;77.40;;;;;;5068701;28;20041;-87
2021/08/21 06:20:28;;;;;;;1.10;0.90;;;18.00;76.70;;;;;;5071803;28;20031;-82
2021/08/21 06:22:54;;;;;;;1.50;1.05;;;18.10;76.80;;;;;;5073529;28;20060;-83
2021/08/21 06:25:20;;;;;;;0.98;0.77;;;18.10;77.00;;;;;;5074798;28;20028;-86
2021/08/21 06:27:46;;;;;;;1.20;0.90;;;18.20;77.10;;;;;;5073670;28;20108;-85
2021/08/21 06:30:12;;;;;;;1.50;1.23;;;18.20;76.70;;;;;;5070579;28;20383;-84
2021/08/21 06:32:38;;;;;;;1.30;1.08;;;18.20;76.90;;;;;;5076065;28;20107;-86
2021/08/21 06:35:05;;;;;;;1.17;0.98;;;18.20;76.70;;;;;;5092461;28;20032;-84
2021/08/21 06:37:31;;;;;;;2.95;1.30;;;18.30;76.20;;;;;;5075146;28;20407;-86
2021/08/21 06:39:56;;;;;;;1.40;1.00;;;18.30;76.60;;;;;;5070180;28;20040;-86
2021/08/21 06:42:22;;;;;;;1.33;0.98;;;18.30;75.90;;;;;;5074692;28;20017;-85
2021/08/21 06:44:48;;;;;;;1.38;0.90;;;18.40;75.50;;;;;;5064655;28;20044;-86
2021/08/21 06:47:13;;;;;;;1.70;1.20;;;18.40;76.20;;;;;;5055295;28;20029;-85
2021/08/21 06:49:39;;;;;;;1.33;1.20;;;18.40;76.40;;;;;;5056452;28;20024;-80
2021/08/21 06:52:05;;;;;;;2.65;1.25;;;18.30;76.30;;;;;;5074815;28;20025;-79
2021/08/21 06:54:31;;;;;;;1.33;1.15;;;18.30;76.10;;;;;;5073640;28;20118;-80
2021/08/21 06:56:56;;;;;;;1.23;1.00;;;18.30;75.80;;;;;;5058667;28;20029;-81
2021/08/21 06:59:22;;;;;;;1.42;1.20;;;18.40;75.70;;;;;;5054478;28;20029;-81
2021/08/21 07:01:48;;;;;;;2.63;1.48;;;18.30;76.10;;;;;;5055157;28;20018;-79
2021/08/21 07:04:19;;;;;;;1.33;1.23;;;18.40;76.00;;;;;;5060989;28;20028;-78
2021/08/21 07:06:45;;;;;;;1.65;1.25;;;18.40;76.10;;;;;;5073645;28;20067;-78
2021/08/21 07:09:11;;;;;;;1.40;1.23;;;18.30;75.90;;;;;;5072224;28;20028;-78
2021/08/21 07:11:36;;;;;;;1.98;1.13;;;18.30;76.10;;;;;;5071552;28;20036;-79
2021/08/21 07:14:02;;;;;;;1.33;1.20;;;18.30;76.10;;;;;;5071626;28;20093;-78
2021/08/21 07:16:28;;;;;;;1.20;1.00;;;18.40;75.90;;;;;;5073013;28;20028;-78
2021/08/21 07:18:53;;;;;;;1.88;1.55;;;18.40;75.50;;;;;;5072871;28;20116;-78
2021/08/21 07:21:21;;;;;;;1.50;1.20;;;18.40;75.30;;;;;;5072859;28;20029;-77
2021/08/21 07:23:47;;;;;;;1.50;1.40;;;18.50;75.10;;;;;;5067384;28;20025;-78
2021/08/21 07:26:13;;;;;;;1.30;1.10;;;18.60;74.90;;;;;;5054532;28;20143;-78
2021/08/21 07:28:38;;;;;;;1.70;1.30;;;18.60;74.60;;;;;;5054761;28;20384;-77
2021/08/21 07:31:04;;;;;;;2.05;1.45;;;18.60;74.50;;;;;;5072700;28;20111;-78
2021/08/21 07:33:30;;;;;;;1.58;1.27;;;18.50;74.70;;;;;;5061472;28;20033;-78
2021/08/21 07:35:55;;;;;;;1.67;1.25;;;18.60;74.60;;;;;;5054308;28;20028;-78
2021/08/21 07:38:22;;;;;;;1.52;1.20;;;18.40;75.20;;;;;;5054504;28;20110;-78
2021/08/21 07:40:47;;;;;;;1.45;1.08;;;18.50;75.30;;;;;;5061863;28;20034;-78
2021/08/21 07:43:13;;;;;;;1.50;1.38;;;18.40;75.40;;;;;;5065530;28;20063;-78
2021/08/21 07:45:39;;;;;;;1.63;1.42;;;18.40;75.70;;;;;;5057816;28;20407;-78
2021/08/21 07:48:05;;;;;;;1.35;1.20;;;18.50;75.40;;;;;;5058148;28;20481;-78
2021/08/21 07:50:31;;;;;;;1.60;1.40;;;18.50;75.60;;;;;;5057898;28;20063;-78
2021/08/21 07:52:56;;;;;;;2.47;1.42;;;18.60;75.30;;;;;;5057766;28;20029;-78
2021/08/21 07:55:22;;;;;;;1.92;1.55;;;18.60;75.40;;;;;;5057824;28;20025;-78
2021/08/21 07:57:48;;;;;;;2.33;1.40;;;18.60;75.30;;;;;;5057847;28;20057;-78
2021/08/21 08:00:14;;;;;;;2.95;1.60;;;18.60;75.80;;;;;;5057467;28;20033;-78
2021/08/21 08:02:45;;;;;;;1.70;1.50;;;18.70;75.50;;;;;;5057872;28;20021;-78
2021/08/21 08:05:12;;;;;;;1.77;1.50;;;18.60;75.70;;;;;;5056245;28;20036;-78
2021/08/21 08:07:38;;;;;;;2.00;1.50;;;18.70;76.20;;;;;;5059180;28;20596;-78
2021/08/21 08:10:04;;;;;;;2.42;1.85;;;18.70;75.80;;;;;;5076301;28;20029;-78
2021/08/21 08:12:30;;;;;;;2.28;1.70;;;18.70;75.90;;;;;;5076295;28;20035;-78
2021/08/21 08:14:56;;;;;;;2.15;1.70;;;18.80;76.40;;;;;;5069559;28;20025;-78
2021/08/21 08:17:21;;;;;;;1.63;1.52;;;18.60;76.40;;;;;;5073148;28;20033;-78
2021/08/21 08:19:47;;;;;;;1.98;1.63;;;18.60;76.30;;;;;;5057250;28;20025;-78
2021/08/21 08:22:12;;;;;;;1.92;1.63;;;18.60;76.20;;;;;;5057314;28;20033;-78
2021/08/21 08:24:38;;;;;;;1.55;1.45;;;18.70;76.20;;;;;;5057461;28;20074;-78
2021/08/21 08:27:04;;;;;;;1.85;1.60;;;18.70;76.30;;;;;;5056046;28;20044;-78
2021/08/21 08:29:29;;;;;;;1.92;1.73;;;18.60;76.80;;;;;;5057225;28;20491;-78
2021/08/21 08:31:55;;;;;;;1.83;1.63;;;18.50;77.10;;;;;;5056858;28;20074;-78
2021/08/21 08:34:21;;;;;;;2.22;1.70;;;18.50;77.90;;;;;;5057052;28;20023;-78
2021/08/21 08:36:47;;;;;;;2.30;1.80;;;18.50;77.60;;;;;;5056872;28;20029;-78
2021/08/21 08:39:12;;;;;;;2.13;1.83;;;18.50;77.80;;;;;;5056925;28;20104;-78
2021/08/21 08:41:42;;;;;;;1.85;1.67;;;18.50;77.80;;;;;;5062237;28;20059;-78
2021/08/21 08:44:10;;;;;;;1.80;1.70;;;18.60;77.80;;;;;;5056977;28;20033;-78
2021/08/21 08:46:38;;;;;;;3.28;2.10;;;18.60;78.00;;;;;;5056535;28;20108;-78
2021/08/21 08:49:05;;;;;;;1.73;1.50;;;18.60;77.90;;;;;;5055720;28;20052;-78
2021/08/21 08:51:32;;;;;;;2.15;1.95;;;18.70;77.70;;;;;;5076742;28;20032;-78
2021/08/21 08:53:58;;;;;;;2.05;1.80;;;18.60;78.10;;;;;;5076734;28;20028;-78
2021/08/21 08:56:24;;;;;;;2.47;2.03;;;18.70;78.40;;;;;;5070652;28;20040;-78
2021/08/21 08:58:49;;;;;;;2.40;2.00;;;18.70;78.10;;;;;;5056641;28;20025;-78
2021/08/21 09:01:15;;;;;;;2.38;2.05;;;18.70;78.70;;;;;;5056551;28;20040;-78
2021/08/21 09:03:41;;;;;;;1.92;1.70;;;18.60;79.10;;;;;;5056217;28;20021;-78
2021/08/21 09:06:11;;;;;;;2.00;1.52;;;18.50;80.00;;;;;;5056566;28;20040;-78
2021/08/21 09:08:37;;;;;;;2.42;1.65;;;18.30;80.60;;;;;;5056139;28;20036;-78
2021/08/21 09:11:22;;;;;;;2.10;1.90;;;18.30;81.10;;;;;;5056435;28;20029;-78
2021/08/21 09:13:49;;;;;;;2.13;1.88;;;18.30;81.50;;;;;;5067935;28;20016;-78
2021/08/21 09:16:28;;;;;;;2.20;2.00;;;18.20;82.20;;;;;;5070618;28;20044;-78
2021/08/21 09:19:06;;;;;;;2.20;2.00;;;18.20;82.20;;;;;;5056095;28;20031;-78
2021/08/21 09:21:33;;;;;;;2.40;1.80;;;18.10;82.90;;;;;;5057914;28;20115;-78
2021/08/21 09:23:58;;;;;;;2.00;1.80;;;18.00;83.30;;;;;;5076081;28;20086;-78
2021/08/21 09:26:35;;;;;;;2.40;1.73;;;18.00;83.50;;;;;;5076235;28;20443;-78
2021/08/21 09:29:02;;;;;;;2.20;2.00;;;18.00;84.00;;;;;;5076026;28;20050;-78
2021/08/21 09:31:33;;;;;;;2.53;2.15;;;17.90;84.10;;;;;;5060677;28;20043;-78
2021/08/21 09:34:06;;;;;;;2.63;2.20;;;18.00;84.50;;;;;;5055817;28;20403;-78
2021/08/21 09:36:34;;;;;;;2.60;2.40;;;18.00;84.40;;;;;;5055857;28;20083;-78
2021/08/21 09:39:06;;;;;;;2.17;1.98;;;17.90;84.60;;;;;;5055555;28;20032;-78
2021/08/21 09:41:55;;;;;;;2.67;2.10;;;18.00;84.20;;;;;;5069307;28;20032;-78
2021/08/21 09:44:37;;;;;;;2.40;2.20;;;18.00;84.60;;;;;;5056347;28;20111;-78
2021/08/21 09:47:19;;;;;;;3.70;2.50;;;18.10;84.20;;;;;;5055512;28;20905;-78
2021/08/21 09:49:45;;;;;;;2.40;2.20;;;18.30;84.00;;;;;;5055873;28;20470;-78
2021/08/21 09:52:14;;;;;;;2.08;1.83;;;18.20;83.60;;;;;;5060928;28;20052;-78
2021/08/21 09:54:42;;;;;;;3.33;2.10;;;18.20;83.70;;;;;;5075609;28;20025;-78
2021/08/21 09:57:12;;;;;;;2.30;2.10;;;18.30;83.70;;;;;;5075529;28;20021;-78
2021/08/21 09:59:41;;;;;;;2.40;2.20;;;18.30;83.30;;;;;;5073232;28;20029;-78
2021/08/21 10:02:15;;;;;;;2.45;2.20;;;18.30;83.30;;;;;;5055571;28;20773;-78
2021/08/21 10:04:42;;;;;;;2.05;1.85;;;18.40;83.50;;;;;;5055431;28;20036;-78
2021/08/21 10:07:13;;;;;;;2.40;2.20;;;18.50;83.40;;;;;;5055119;28;20041;-78
2021/08/21 10:09:39;;;;;;;2.60;2.20;;;18.50;83.20;;;;;;5068694;28;20021;-78
2021/08/21 10:12:10;;;;;;;2.67;2.15;;;18.60;83.30;;;;;;5075338;28;20386;-78
2021/08/21 10:14:39;;;;;;;2.00;1.80;;;18.70;82.50;;;;;;5075304;28;20075;-78
2021/08/21 10:17:08;;;;;;;2.35;2.15;;;18.70;82.50;;;;;;5064961;28;20036;-78
2021/08/21 10:19:35;;;;;;;2.83;2.13;;;18.70;82.10;;;;;;5055165;28;20541;-78
2021/08/21 10:22:02;;;;;;;2.47;2.28;;;18.80;81.70;;;;;;5055214;28;20035;-78
2021/08/21 10:24:34;;;;;;;2.42;2.22;;;18.80;81.70;;;;;;5053834;28;20033;-78
2021/08/21 10:27:28;;;;;;;2.33;2.13;;;18.70;82.30;;;;;;5055106;28;20017;-78
2021/08/21 10:30:04;;;;;;;1.95;1.77;;;18.80;81.70;;;;;;5047957;28;20128;-78
2021/08/21 10:32:33;;;;;;;2.53;1.65;;;18.80;82.00;;;;;;5055089;28;20029;-78
2021/08/21 10:34:59;;;;;;;2.35;2.03;;;18.80;81.80;;;;;;5055072;28;20024;-78
2021/08/21 10:37:33;;;;;;;1.70;1.58;;;18.80;82.00;;;;;;5055127;28;20082;-78
2021/08/21 10:39:59;;;;;;;2.20;1.75;;;18.90;81.50;;;;;;5055526;28;20587;-78
2021/08/21 10:42:34;;;;;;;2.42;2.10;;;19.00;81.10;;;;;;5075207;28;20111;-78
2021/08/21 10:45:00;;;;;;;2.45;1.90;;;19.10;81.60;;;;;;5075065;28;20051;-79
2021/08/21 10:47:31;;;;;;;1.90;1.70;;;19.20;81.70;;;;;;5074870;28;20023;-78
2021/08/21 10:50:21;;;;;;;1.77;1.58;;;19.20;81.20;;;;;;5074899;28;20060;-78
2021/08/21 10:52:55;;;;;;;1.95;1.60;;;19.20;81.60;;;;;;5074812;28;20039;-78
2021/08/21 10:55:44;;;;;;;1.90;1.70;;;19.50;81.30;;;;;;5074729;28;20085;-79
2021/08/21 10:58:13;;;;;;;1.60;1.38;;;19.60;80.80;;;;;;5069167;28;20127;-78
2021/08/21 11:00:38;;;;;;;1.95;1.75;;;19.50;80.90;;;;;;5054876;28;20112;-78
2021/08/21 11:03:09;;;;;;;2.17;1.52;;;19.60;81.70;;;;;;5054776;28;20055;-78
2021/08/21 11:06:04;;;;;;;1.52;1.25;;;19.70;80.90;;;;;;5054507;28;20025;-79
2021/08/21 11:08:32;;;;;;;1.50;1.35;;;19.90;80.50;;;;;;5070056;28;20549;-78
2021/08/21 11:11:34;;;;;;;1.30;1.15;;;20.20;79.70;;;;;;5054695;28;20029;-78
2021/08/21 11:14:26;;;;;;;1.70;1.40;;;20.20;79.10;;;;;;5056777;28;20025;-78
2021/08/21 11:17:00;;;;;;;1.40;1.20;;;20.20;78.80;;;;;;5054655;28;20115;-78
2021/08/21 11:19:35;;;;;;;1.30;0.90;;;20.30;78.70;;;;;;5057482;28;20583;-79
2021/08/21 11:22:10;;;;;;;1.98;1.27;;;20.30;78.80;;;;;;5058553;28;20029;-78
2021/08/21 11:24:37;;;;;;;1.30;1.13;;;20.30;79.00;;;;;;5058368;28;20036;-78
2021/08/21 11:27:25;;;;;;;2.03;1.45;;;20.50;78.50;;;;;;5076282;28;20094;-78
2021/08/21 11:30:27;;;;;;;1.38;1.20;;;20.50;78.10;;;;;;5078434;28;20031;-79
2021/08/21 11:33:07;;;;;;;2.20;1.35;;;20.60;78.10;;;;;;5057774;28;20480;-78
2021/08/21 11:35:45;;;;;;;1.92;1.58;;;20.60;78.10;;;;;;5060510;28;20492;-78
2021/08/21 11:38:17;;;;;;;1.70;1.48;;;20.80;77.90;;;;;;5078210;28;20070;-78
2021/08/21 11:40:50;;;;;;;1.92;1.45;;;20.90;78.70;;;;;;5070469;28;20037;-78
2021/08/21 11:43:25;;;;;;;1.30;1.00;;;21.00;77.90;;;;;;5076601;28;20024;-78
2021/08/21 11:45:51;;;;;;;1.73;1.20;;;21.00;77.90;;;;;;5071090;28;20037;-79
2021/08/21 11:48:17;;;;;;;1.00;0.90;;;21.30;77.40;;;;;;5057981;28;20440;-79
2021/08/21 11:50:44;;;;;;;1.77;1.20;;;21.50;77.90;;;;;;5057954;28;20385;-79
2021/08/21 11:53:18;;;;;;;1.20;0.98;;;21.50;76.70;;;;;;5062304;28;20039;-79
2021/08/21 11:55:43;;;;;;;1.40;0.90;;;21.70;76.70;;;;;;5076822;28;20033;-79
2021/08/21 11:58:10;;;;;;;1.35;0.90;;;21.90;75.00;;;;;;5071999;28;20499;-79
2021/08/21 12:00:40;;;;;;;1.25;0.75;;;21.90;76.60;;;;;;5057618;28;20025;-79
2021/08/21 12:03:09;;;;;;;1.67;1.00;;;22.40;75.10;;;;;;5058006;28;20534;-79
2021/08/21 12:05:43;;;;;;;1.20;0.80;;;22.80;74.40;;;;;;5057448;28;20057;-79
2021/08/21 12:08:24;;;;;;;0.90;0.60;;;23.00;72.90;;;;;;5056151;28;20134;-78
2021/08/21 12:11:02;;;;;;;1.00;0.60;;;22.80;72.90;;;;;;5057638;28;20430;-78
2021/08/21 12:13:32;;;;;;;0.98;0.50;;;22.50;73.70;;;;;;5076210;28;20718;-79
2021/08/21 12:16:04;;;;;;;1.00;0.70;;;22.20;75.30;;;;;;5063422;28;20033;-78
2021/08/21 12:18:33;;;;;;;0.98;0.60;;;22.20;74.50;;;;;;5057167;28;20422;-79
2021/08/21 12:20:59;;;;;;;1.17;0.65;;;21.80;74.40;;;;;;5077251;28;20044;-79
2021/08/21 12:23:25;;;;;;;0.90;0.50;;;21.80;75.10;;;;;;5062671;28;20102;-79
2021/08/21 12:25:56;;;;;;;0.98;0.70;;;21.60;75.60;;;;;;5057581;28;20033;-79
2021/08/21 12:28:25;;;;;;;0.90;0.55;;;21.50;75.90;;;;;;5056973;28;20025;-79
2021/08/21 12:31:00;;;;;;;1.20;0.60;;;21.60;75.90;;;;;;5062444;28;20029;-79
2021/08/21 12:33:28;;;;;;;1.20;0.70;;;21.70;74.80;;;;;;5068797;28;20040;-79
2021/08/21 12:35:54;;;;;;;0.90;0.70;;;21.60;76.10;;;;;;5057010;28;20035;-78
2021/08/21 12:38:20;;;;;;;0.88;0.50;;;21.80;75.90;;;;;;5057093;28;20029;-79
2021/08/21 12:41:09;;;;;;;0.80;0.50;;;21.90;75.70;;;;;;5066019;28;20032;-79
2021/08/21 12:43:34;;;;;;;1.20;0.70;;;21.70;76.40;;;;;;5076869;28;20471;-79
2021/08/21 12:46:01;;;;;;;1.10;0.65;;;21.60;76.60;;;;;;5076815;28;20145;-79
2021/08/21 12:48:27;;;;;;;0.95;0.60;;;21.30;77.30;;;;;;5071191;28;20534;-79
2021/08/21 12:50:53;;;;;;;1.00;0.70;;;21.20;77.10;;;;;;5055542;28;20025;-78
2021/08/21 12:53:20;;;;;;;1.02;0.63;;;21.10;77.40;;;;;;5056820;28;20040;-79